Time;durP1;ratioP1;P1;durP2;ratioP2;P2;SDS_P1;SDS_P2;PMS_P1;PMS_P2;Temp;Humidity;BMP_temperature;BMP_pressure;BME280_temperature;BME280_humidity;BME280_pressure;Samples;Min_cycle;Max_cycle;Signal;HPM_P1;HPM_P2
2023/04/03 00:01:20;;;;;;;3.97;1.73;;;;;;;2.83;100.00;102873.88;5058950;28;21380;-61
2023/04/03 00:03:48;;;;;;;4.30;1.75;;;;;;;2.81;100.00;102878.22;5060595;28;20045;-60
2023/04/03 00:06:17;;;;;;;5.43;1.75;;;;;;;2.78;100.00;102880.81;5057143;28;20516;-61
2023/04/03 00:08:45;;;;;;;6.03;2.03;;;;;;;2.77;100.00;102881.69;5066608;28;20098;-61
2023/04/03 00:11:13;;;;;;;5.18;1.60;;;;;;;2.72;100.00;102886.00;5073346;28;20049;-60
2023/04/03 00:13:41;;;;;;;4.10;1.80;;;;;;;2.70;100.00;102880.81;5063434;28;20403;-60
2023/04/03 00:16:11;;;;;;;3.55;1.60;;;;;;;2.70;100.00;102882.56;5062877;28;20040;-60
2023/04/03 00:18:41;;;;;;;6.18;2.00;;;;;;;2.64;100.00;102888.59;5060656;28;20063;-60
2023/04/03 00:21:11;;;;;;;6.72;1.75;;;;;;;2.65;100.00;102889.47;5069763;28;20044;-61
2023/04/03 00:23:39;;;;;;;3.70;1.80;;;;;;;2.62;100.00;102887.72;5069728;28;20055;-60
2023/04/03 00:26:07;;;;;;;5.25;1.60;;;;;;;2.62;100.00;102894.63;5068999;28;20072;-60
2023/04/03 00:28:35;;;;;;;7.50;1.80;;;;;;;2.65;100.00;102894.66;5071632;28;20052;-60
2023/04/03 00:31:06;;;;;;;5.75;1.80;;;;;;;2.62;100.00;102902.44;5073431;28;20057;-61
2023/04/03 00:33:34;;;;;;;5.68;2.00;;;;;;;2.62;100.00;102899.84;5072898;28;20123;-61
2023/04/03 00:36:10;;;;;;;5.93;1.95;;;;;;;2.57;100.00;102899.00;5065365;28;20045;-60
2023/04/03 00:38:38;;;;;;;4.80;1.83;;;;;;;2.51;100.00;102895.50;5069924;28;20101;-61
2023/04/03 00:41:09;;;;;;;5.45;1.50;;;;;;;2.48;100.00;102892.91;5071470;28;20076;-60
2023/04/03 00:43:38;;;;;;;6.55;1.98;;;;;;;2.58;100.00;102895.50;5070583;28;20106;-60
2023/04/03 00:46:09;;;;;;;4.75;1.77;;;;;;;2.52;100.00;102899.84;5068314;28;20044;-61
2023/04/03 00:48:41;;;;;;;5.50;1.90;;;;;;;2.46;100.00;102899.81;5070046;28;20407;-61
2023/04/03 00:51:15;;;;;;;6.10;2.08;;;;;;;2.40;100.00;102902.44;5062111;28;20090;-61
2023/04/03 00:53:47;;;;;;;4.85;1.90;;;;;;;2.41;100.00;102898.94;5058369;28;20044;-61
2023/04/03 00:56:18;;;;;;;4.97;1.70;;;;;;;2.44;100.00;102905.88;5058267;28;20403;-61
2023/04/03 00:58:51;;;;;;;5.55;1.90;;;;;;;2.35;100.00;102901.53;5057326;28;20757;-61
2023/04/03 01:01:23;;;;;;;4.28;1.60;;;;;;;2.34;100.00;102905.00;5061290;28;20037;-61
2023/04/03 01:03:52;;;;;;;5.63;2.03;;;;;;;2.32;100.00;102902.41;5063664;28;20053;-62
2023/04/03 01:06:27;;;;;;;4.68;1.80;;;;;;;2.31;100.00;102905.00;5068494;28;20045;-61
2023/04/03 01:08:56;;;;;;;8.75;2.10;;;;;;;2.26;100.00;102917.97;5060905;28;20036;-60
2023/04/03 01:11:24;;;;;;;4.43;1.67;;;;;;;2.27;100.00;102919.69;5060727;28;20070;-60
2023/04/03 01:13:53;;;;;;;6.80;1.70;;;;;;;2.33;100.00;102908.44;5062971;28;20044;-61
2023/04/03 01:16:21;;;;;;;5.53;1.85;;;;;;;2.29;100.00;102914.50;5059136;28;20047;-61
2023/04/03 01:18:50;;;;;;;6.43;2.10;;;;;;;2.25;100.00;102920.56;5057465;28;20522;-60
2023/04/03 01:21:55;;;;;;;4.95;1.70;;;;;;;2.28;100.00;102915.38;5060476;28;20045;-61
2023/04/03 01:24:32;;;;;;;6.55;1.75;;;;;;;2.26;100.00;102917.09;5056325;28;20033;-61
2023/04/03 01:27:03;;;;;;;5.38;1.83;;;;;;;2.29;100.00;102922.28;5057481;28;20045;-59
2023/04/03 01:29:32;;;;;;;7.55;2.03;;;;;;;2.32;100.00;102923.19;5060084;28;20068;-59
2023/04/03 01:32:03;;;;;;;6.13;1.80;;;;;;;2.23;100.00;102917.97;5061105;28;20116;-60
2023/04/03 01:34:32;;;;;;;5.57;1.63;;;;;;;2.16;100.00;102922.25;5061842;28;20078;-60
2023/04/03 01:37:00;;;;;;;4.90;1.63;;;;;;;2.17;100.00;102929.19;5059400;28;20481;-60
2023/04/03 01:39:28;;;;;;;5.55;2.10;;;;;;;2.14;100.00;102923.13;5059060;28;20044;-60
2023/04/03 01:41:56;;;;;;;5.00;1.85;;;;;;;2.12;100.00;102925.72;5057306;28;20424;-60
2023/04/03 01:44:24;;;;;;;6.57;2.05;;;;;;;2.10;100.00;102930.03;5061230;28;20076;-60
2023/04/03 01:46:55;;;;;;;4.57;1.73;;;;;;;2.11;100.00;102929.16;5056800;28;20369;-60
2023/04/03 01:49:24;;;;;;;4.53;1.60;;;;;;;2.17;100.00;102930.94;5056469;28;20110;-61
2023/04/03 01:51:52;;;;;;;5.20;1.90;;;;;;;2.18;100.00;102925.75;5056242;28;20060;-60
2023/04/03 01:54:21;;;;;;;5.80;1.92;;;;;;;2.10;100.00;102927.44;5059767;28;20052;-60
2023/04/03 01:56:49;;;;;;;4.80;1.60;;;;;;;2.08;100.00;102934.34;5062658;28;20045;-60
2023/04/03 01:59:19;;;;;;;5.45;2.13;;;;;;;2.06;100.00;102930.00;5061092;28;20052;-61
2023/04/03 02:01:47;;;;;;;7.07;1.90;;;;;;;2.10;100.00;102936.94;5056975;28;20073;-61
2023/04/03 02:04:15;;;;;;;6.90;2.20;;;;;;;2.03;100.00;102936.03;5054037;28;20052;-60
2023/04/03 02:06:45;;;;;;;5.45;2.03;;;;;;;1.98;100.00;102943.81;5057200;28;20049;-61
2023/04/03 02:09:13;;;;;;;6.50;1.60;;;;;;;1.97;100.00;102936.03;5061448;28;20048;-60
2023/04/03 02:11:41;;;;;;;5.28;1.60;;;;;;;1.93;100.00;102939.47;5059925;28;20049;-60
2023/04/03 02:14:09;;;;;;;7.10;1.95;;;;;;;1.92;100.00;102937.75;5064212;28;20048;-60
2023/04/03 02:16:37;;;;;;;7.63;2.00;;;;;;;1.89;100.00;102937.72;5057967;28;20051;-61
2023/04/03 02:19:07;;;;;;;7.45;1.73;;;;;;;1.88;100.00;102941.19;5061414;28;20123;-61
2023/04/03 02:21:35;;;;;;;4.68;1.70;;;;;;;1.81;100.00;102937.69;5070991;28;20429;-61
2023/04/03 02:24:05;;;;;;;5.93;1.85;;;;;;;1.83;100.00;102942.03;5072141;28;20144;-61
2023/04/03 02:26:33;;;;;;;3.80;1.58;;;;;;;1.83;100.00;102943.78;5071814;28;20136;-61
2023/04/03 02:29:01;;;;;;;8.45;2.15;;;;;;;1.81;100.00;102941.16;5073670;28;20044;-60
2023/04/03 02:31:29;;;;;;;8.07;2.03;;;;;;;1.79;100.00;102945.47;5074040;28;20041;-61
2023/04/03 02:33:57;;;;;;;5.90;2.13;;;;;;;1.76;100.00;102952.34;5072608;28;20044;-61
2023/04/03 02:36:25;;;;;;;6.03;2.17;;;;;;;1.76;100.00;102948.06;5052904;28;20030;-61
2023/04/03 02:38:53;;;;;;;5.47;2.33;;;;;;;1.74;100.00;102954.09;5069030;28;20136;-61
2023/04/03 02:41:25;;;;;;;6.13;2.03;;;;;;;1.72;100.00;102946.31;5071101;28;20052;-61
2023/04/03 02:43:54;;;;;;;7.20;2.15;;;;;;;1.68;100.00;102950.59;5072369;28;20052;-61
2023/04/03 02:46:22;;;;;;;6.65;2.10;;;;;;;1.71;100.00;102949.75;5071154;28;20072;-61
2023/04/03 02:48:50;;;;;;;6.43;1.80;;;;;;;1.72;100.00;102951.50;5072368;28;20419;-61
2023/04/03 02:51:18;;;;;;;6.95;2.10;;;;;;;1.68;100.00;102950.59;5063724;28;20098;-60
2023/04/03 02:53:46;;;;;;;4.20;1.83;;;;;;;1.64;100.00;102943.66;5064140;28;20047;-61
2023/04/03 02:56:17;;;;;;;6.70;2.10;;;;;;;1.63;100.00;102943.66;5061477;28;20053;-60
2023/04/03 02:58:47;;;;;;;5.10;1.80;;;;;;;1.64;100.00;102950.59;5061023;28;20044;-60
2023/04/03 03:01:16;;;;;;;4.03;1.70;;;;;;;1.64;100.00;102956.63;5058655;28;20056;-60
2023/04/03 03:03:44;;;;;;;3.70;1.98;;;;;;;1.61;100.00;102954.03;5065293;28;20051;-61
2023/04/03 03:06:17;;;;;;;8.25;2.33;;;;;;;1.60;100.00;102954.00;5067441;28;20051;-61
2023/04/03 03:08:45;;;;;;;6.57;2.00;;;;;;;1.58;100.00;102953.13;5060594;28;20055;-60
2023/04/03 03:11:16;;;;;;;6.65;2.22;;;;;;;1.58;100.00;102958.31;5063521;28;20063;-61
2023/04/03 03:13:48;;;;;;;6.38;2.10;;;;;;;1.56;100.00;102965.22;5068419;28;20385;-61
2023/04/03 03:16:16;;;;;;;6.40;2.03;;;;;;;1.58;100.00;102966.97;5059575;28;20048;-60
2023/04/03 03:18:47;;;;;;;6.32;2.25;;;;;;;1.52;100.00;102970.38;5062357;28;20473;-60
2023/04/03 03:21:18;;;;;;;7.93;2.20;;;;;;;1.48;100.00;102968.63;5063987;28;20047;-61
2023/04/03 03:23:48;;;;;;;6.38;1.90;;;;;;;1.51;100.00;102976.44;5064327;28;20463;-61
2023/04/03 03:26:17;;;;;;;6.00;2.20;;;;;;;1.47;100.00;102969.50;5062941;28;20044;-61
2023/04/03 03:28:45;;;;;;;8.30;3.10;;;;;;;1.43;100.00;102972.03;5060882;28;20067;-60
2023/04/03 03:31:15;;;;;;;6.80;2.25;;;;;;;1.37;100.00;102980.66;5061085;28;20121;-60
2023/04/03 03:33:43;;;;;;;6.43;2.40;;;;;;;1.34;100.00;102981.50;5062106;28;20045;-61
2023/04/03 03:36:13;;;;;;;6.05;2.10;;;;;;;1.32;100.00;102985.81;5059709;28;20052;-61
2023/04/03 03:38:44;;;;;;;5.50;2.03;;;;;;;1.30;100.00;102981.47;5060309;28;20048;-60
2023/04/03 03:41:12;;;;;;;4.50;1.80;;;;;;;1.30;100.00;102981.47;5057144;28;20057;-60
2023/04/03 03:43:40;;;;;;;7.30;2.20;;;;;;;1.31;100.00;102980.59;5059871;28;21093;-60
2023/04/03 03:46:08;;;;;;;7.10;2.17;;;;;;;1.35;100.00;102987.56;5060167;28;20557;-60
2023/04/03 03:48:41;;;;;;;7.35;2.13;;;;;;;1.30;100.00;102986.66;5064893;28;20036;-61
2023/04/03 03:51:09;;;;;;;7.00;2.00;;;;;;;1.26;100.00;102984.91;5062064;28;20185;-59
2023/04/03 03:53:37;;;;;;;8.48;2.45;;;;;;;1.28;100.00;102980.56;5064053;28;20052;-60
2023/04/03 03:56:08;;;;;;;8.50;2.97;;;;;;;1.23;100.00;102990.03;5064912;28;20049;-60
2023/04/03 03:58:36;;;;;;;5.50;2.00;;;;;;;1.19;100.00;102991.75;5061466;28;20055;-61
2023/04/03 04:01:06;;;;;;;7.90;2.17;;;;;;;1.18;100.00;102996.03;5060277;28;20392;-60
2023/04/03 04:03:35;;;;;;;6.47;2.15;;;;;;;1.14;100.00;102994.28;5058704;28;20511;-60
2023/04/03 04:06:04;;;;;;;8.20;1.92;;;;;;;1.15;100.00;102993.44;5059527;28;20388;-60
2023/04/03 04:08:33;;;;;;;4.45;1.98;;;;;;;1.11;100.00;102999.44;5064753;28;20037;-60
2023/04/03 04:11:01;;;;;;;6.03;1.98;;;;;;;1.09;100.00;102996.00;5061270;28;20037;-60
2023/04/03 04:13:29;;;;;;;7.13;2.80;;;;;;;1.08;100.00;102994.25;5059247;28;20072;-60
2023/04/03 04:15:57;;;;;;;7.10;2.38;;;;;;;1.09;100.00;103000.28;5059488;28;20072;-60
2023/04/03 04:18:25;;;;;;;6.97;2.25;;;;;;;1.09;100.00;103000.28;5068653;28;20033;-59
2023/04/03 04:20:53;;;;;;;8.75;2.28;;;;;;;0.98;100.00;102998.47;5070399;28;20095;-60
2023/04/03 04:23:23;;;;;;;9.25;2.92;;;;;;;0.97;100.00;102995.88;5070357;28;20415;-59
2023/04/03 04:25:52;;;;;;;5.68;2.10;;;;;;;0.95;100.00;102997.56;5069015;28;20522;-59
2023/04/03 04:28:20;;;;;;;9.07;2.30;;;;;;;0.92;100.00;103000.16;5070421;28;20784;-60
2023/04/03 04:30:48;;;;;;;8.38;2.63;;;;;;;0.91;100.00;103011.34;5069612;28;20447;-60
2023/04/03 04:33:16;;;;;;;8.25;2.25;;;;;;;0.91;100.00;103008.75;5069711;28;20510;-60
2023/04/03 04:35:45;;;;;;;6.53;2.30;;;;;;;0.87;100.00;103007.00;5072845;28;20098;-60
2023/04/03 04:38:13;;;;;;;4.97;2.15;;;;;;;0.83;100.00;103004.38;5070306;28;20052;-60
2023/04/03 04:40:42;;;;;;;6.63;2.35;;;;;;;0.79;100.00;103009.50;5067802;28;20049;-60
2023/04/03 04:43:14;;;;;;;7.95;2.80;;;;;;;0.78;100.00;103011.22;5070245;28;20048;-60
2023/04/03 04:45:42;;;;;;;7.55;2.25;;;;;;;0.80;100.00;103008.66;5068650;28;20360;-59
2023/04/03 04:48:10;;;;;;;6.60;2.47;;;;;;;0.77;100.00;103012.06;5069518;28;20048;-60
2023/04/03 04:50:38;;;;;;;9.55;2.60;;;;;;;0.76;100.00;103010.34;5063768;28;20083;-60
2023/04/03 04:53:06;;;;;;;9.25;2.22;;;;;;;0.75;100.00;103012.91;5060036;28;20066;-60
2023/04/03 04:55:34;;;;;;;6.88;2.22;;;;;;;0.71;100.00;103019.81;5059212;28;20056;-61
2023/04/03 04:58:04;;;;;;;10.60;2.17;;;;;;;0.67;100.00;103023.22;5061490;28;20129;-61
2023/04/03 05:00:32;;;;;;;7.57;2.38;;;;;;;0.68;100.00;103030.09;5057855;28;20053;-61
2023/04/03 05:03:00;;;;;;;8.48;2.33;;;;;;;0.66;100.00;103031.81;5060862;28;20102;-61
2023/04/03 05:05:29;;;;;;;7.18;2.55;;;;;;;0.63;100.00;103034.38;5057815;28;20048;-61
2023/04/03 05:07:59;;;;;;;10.35;2.22;;;;;;;0.60;100.00;103037.81;5063518;28;20040;-61
2023/04/03 05:10:27;;;;;;;10.52;2.08;;;;;;;0.59;100.00;103040.38;5063015;28;20045;-60
2023/04/03 05:12:59;;;;;;;7.93;2.10;;;;;;;0.55;100.00;103033.44;5059977;28;20082;-60
2023/04/03 05:15:28;;;;;;;8.43;2.80;;;;;;;0.58;100.00;103039.50;5060268;28;20044;-60
2023/04/03 05:17:56;;;;;;;5.55;1.80;;;;;;;0.52;100.00;103030.78;5057776;28;20106;-60
2023/04/03 05:20:25;;;;;;;7.82;2.90;;;;;;;0.49;100.00;103045.44;5064814;28;20234;-60
2023/04/03 05:22:53;;;;;;;8.20;2.25;;;;;;;0.49;100.00;103047.16;5061436;28;20047;-60
2023/04/03 05:25:21;;;;;;;10.52;2.25;;;;;;;0.48;100.00;103042.84;5059994;28;20470;-60
2023/04/03 05:27:49;;;;;;;4.18;2.08;;;;;;;0.49;100.00;103037.69;5063266;28;20381;-60
2023/04/03 05:30:18;;;;;;;7.28;1.85;;;;;;;0.53;100.00;103045.47;5060678;28;20033;-60
2023/04/03 05:32:48;;;;;;;7.95;2.20;;;;;;;0.48;100.00;103042.84;5058540;28;20095;-60
2023/04/03 05:35:16;;;;;;;5.65;2.17;;;;;;;0.47;100.00;103048.88;5060377;28;20510;-60
2023/04/03 05:37:44;;;;;;;7.82;2.30;;;;;;;0.45;100.00;103054.03;5058506;28;20048;-60
2023/04/03 05:40:13;;;;;;;5.18;1.90;;;;;;;0.45;100.00;103058.31;5058737;28;20521;-60
2023/04/03 05:42:44;;;;;;;5.85;1.90;;;;;;;0.56;100.00;103066.22;5059777;28;20053;-60
2023/04/03 05:45:12;;;;;;;6.00;2.30;;;;;;;0.52;100.00;103069.63;5061355;28;20483;-60
2023/04/03 05:47:40;;;;;;;6.32;2.00;;;;;;;0.49;100.00;103073.03;5060174;28;20056;-60
2023/04/03 05:50:11;;;;;;;7.55;1.90;;;;;;;0.51;100.00;103073.94;5062983;28;20052;-60
2023/04/03 05:52:44;;;;;;;8.60;2.13;;;;;;;0.56;100.00;103074.00;5058100;28;20052;-62
2023/04/03 05:55:12;;;;;;;8.18;2.58;;;;;;;0.62;100.00;103068.91;5063808;28;20044;-59
2023/04/03 05:57:40;;;;;;;5.15;2.08;;;;;;;0.61;100.00;103072.34;5067035;28;20044;-59
2023/04/03 06:00:14;;;;;;;7.90;2.30;;;;;;;0.59;100.00;103066.28;5066902;28;20056;-62
2023/04/03 06:02:42;;;;;;;6.45;2.60;;;;;;;0.62;100.00;103072.34;5069949;28;20048;-61
2023/04/03 06:05:12;;;;;;;8.18;2.25;;;;;;;0.78;100.00;103073.41;5067200;28;20422;-59
2023/04/03 06:07:41;;;;;;;7.38;2.00;;;;;;;0.71;100.00;103079.38;5063973;28;20612;-57
2023/04/03 06:10:12;;;;;;;5.63;2.20;;;;;;;0.63;100.00;103074.09;5069213;28;20500;-57
2023/04/03 06:12:40;;;;;;;8.93;2.55;;;;;;;0.60;100.00;103083.53;5066645;28;20067;-59
2023/04/03 06:15:09;;;;;;;8.25;2.40;;;;;;;0.60;100.00;103083.53;5067728;28;20033;-59
2023/04/03 06:17:38;;;;;;;10.07;2.45;;;;;;;0.65;100.00;103082.75;5065715;28;20063;-59
2023/04/03 06:20:07;;;;;;;7.72;2.15;;;;;;;0.77;100.00;103074.25;5072480;28;20383;-59
2023/04/03 06:22:41;;;;;;;7.63;1.95;;;;;;;0.79;100.00;103088.09;5073291;28;20076;-56
2023/04/03 06:25:10;;;;;;;9.15;2.67;;;;;;;0.79;100.00;103082.94;5071222;28;20040;-57
2023/04/03 06:27:39;;;;;;;7.28;1.83;;;;;;;0.90;100.00;103087.34;5073171;28;20051;-57
2023/04/03 06:30:10;;;;;;;11.43;2.23;;;;;;;0.90;100.00;103092.53;5072628;28;20076;-57
2023/04/03 06:32:39;;;;;;;6.90;1.92;;;;;;;0.90;100.00;103096.00;5070274;28;20563;-57
2023/04/03 06:35:08;;;;;;;8.18;1.83;;;;;;;0.93;100.00;103097.75;5056071;28;20381;-59
2023/04/03 06:37:36;;;;;;;5.55;1.83;;;;;;;0.93;100.00;103090.00;5069992;28;20049;-57
2023/04/03 06:40:07;;;;;;;6.25;1.85;;;;;;;0.99;100.00;103096.09;5071935;28;20072;-57
2023/04/03 06:42:36;;;;;;;8.60;2.28;;;;;;;1.13;100.00;103096.25;5072199;28;20041;-57
2023/04/03 06:45:04;;;;;;;5.75;2.13;;;;;;;1.20;100.00;103098.91;5071416;28;20127;-58
2023/04/03 06:47:33;;;;;;;7.75;2.25;;;;;;;1.25;100.00;103105.84;5072145;28;20436;-57
2023/04/03 06:50:01;;;;;;;6.93;2.10;;;;;;;1.28;100.00;103108.50;5065218;28;20063;-58
2023/04/03 06:52:29;;;;;;;6.80;1.98;;;;;;;1.37;100.00;103105.13;5060597;28;20078;-58
2023/04/03 06:54:59;;;;;;;6.50;1.90;;;;;;;1.42;100.00;103110.34;5063591;28;20049;-57
2023/04/03 06:57:28;;;;;;;5.47;1.55;;;;;;;1.46;100.00;103113.00;5061347;28;20053;-58
2023/04/03 06:59:59;;;;;;;7.20;2.00;;;;;;;1.56;100.00;103111.34;5061455;28;20037;-58
2023/04/03 07:02:28;;;;;;;6.80;1.80;;;;;;;1.64;100.00;103107.09;5063015;28;21094;-57
2023/04/03 07:04:56;;;;;;;4.95;1.80;;;;;;;1.71;100.00;103110.59;5063148;28;20071;-57
2023/04/03 07:07:24;;;;;;;7.22;2.45;;;;;;;1.84;100.00;103119.34;5059551;28;20055;-58
2023/04/03 07:09:52;;;;;;;6.32;2.10;;;;;;;1.88;100.00;103120.25;5061606;28;20064;-57
2023/04/03 07:12:20;;;;;;;6.07;1.60;;;;;;;1.97;100.00;103122.91;5061151;28;20052;-57
2023/04/03 07:14:50;;;;;;;5.03;1.98;;;;;;;2.03;100.00;103122.94;5062331;28;20044;-57
2023/04/03 07:17:18;;;;;;;9.25;1.83;;;;;;;2.15;100.00;103124.75;5071266;28;20045;-57
2023/04/03 07:19:46;;;;;;;4.07;1.70;;;;;;;2.22;100.00;103136.91;5074179;28;20036;-57
2023/04/03 07:22:14;;;;;;;6.75;1.77;;;;;;;2.34;100.00;103136.13;5074972;28;20487;-58
2023/04/03 07:24:42;;;;;;;6.72;2.17;;;;;;;2.46;100.00;103132.75;5061852;28;20569;-57
2023/04/03 07:27:12;;;;;;;6.45;2.17;;;;;;;2.60;100.00;103136.28;5054718;28;20560;-57
2023/04/03 07:29:40;;;;;;;6.40;1.98;;;;;;;2.70;100.00;103139.81;5057856;28;20051;-58
2023/04/03 07:32:10;;;;;;;7.70;2.10;;;;;;;2.77;100.00;103145.88;5070995;28;20496;-58
2023/04/03 07:34:39;;;;;;;5.38;1.90;;;;;;;2.84;100.00;103143.31;5074203;28;20060;-58
2023/04/03 07:37:08;;;;;;;8.00;1.90;;;;;;;2.95;100.00;103143.34;5073904;28;20041;-58
2023/04/03 07:39:39;;;;;;;;;;;;;;;3.04;100.00;103145.09;5071548;28;20040;-58
2023/04/03 07:42:07;;;;;;;6.63;1.58;;;;;;;3.15;100.00;103148.63;5061916;28;19921;-58
2023/04/03 07:44:36;;;;;;;6.30;1.90;;;;;;;3.32;100.00;103146.06;5071318;28;20052;-58
2023/04/03 07:47:04;;;;;;;8.57;2.13;;;;;;;3.48;100.00;103146.97;5070987;28;20398;-57
2023/04/03 07:49:37;;;;;;;7.43;1.77;;;;;;;3.67;100.00;103149.59;5074597;28;20041;-58
2023/04/03 07:52:07;;;;;;;6.70;1.77;;;;;;;3.79;100.00;103149.59;5074758;28;20053;-57
2023/04/03 07:54:35;;;;;;;4.15;1.48;;;;;;;3.85;100.00;103149.56;5070596;28;20048;-57
2023/04/03 07:57:03;;;;;;;4.90;1.42;;;;;;;3.94;100.00;103146.13;5056021;28;20407;-57
2023/04/03 07:59:32;;;;;;;6.20;2.33;;;;;;;4.15;100.00;103153.03;5057332;28;20063;-58
2023/04/03 08:02:00;;;;;;;5.97;1.60;;;;;;;4.30;100.00;103144.31;5059715;28;20124;-58
2023/04/03 08:04:28;;;;;;;6.65;1.73;;;;;;;4.29;100.00;103145.19;5061079;28;20098;-58
2023/04/03 08:06:58;;;;;;;4.10;1.48;;;;;;;4.47;100.00;103146.91;5058619;28;20476;-58
2023/04/03 08:09:26;;;;;;;4.43;1.48;;;;;;;4.69;100.00;103154.63;5058247;28;20053;-58
2023/04/03 08:11:54;;;;;;;3.80;1.25;;;;;;;4.90;100.00;103149.34;5059608;28;20052;-58
2023/04/03 08:14:26;;;;;;;5.00;1.92;;;;;;;4.94;100.00;103158.03;5060918;28;20132;-58
2023/04/03 08:16:54;;;;;;;3.25;1.10;;;;;;;5.08;100.00;103155.34;5060667;28;20040;-58
2023/04/03 08:19:22;;;;;;;4.07;1.35;;;;;;;5.31;100.00;103155.22;5061379;28;20459;-58
2023/04/03 08:21:54;;;;;;;5.05;1.50;;;;;;;5.38;100.00;103156.91;5063684;28;20059;-59
2023/04/03 08:24:26;;;;;;;4.88;1.50;;;;;;;5.43;100.00;103162.09;5061141;28;20068;-60
2023/04/03 08:26:55;;;;;;;4.85;1.20;;;;;;;5.55;100.00;103163.78;5060913;28;20093;-59
2023/04/03 08:29:23;;;;;;;3.13;1.20;;;;;;;5.76;100.00;103160.97;5066345;28;20064;-58
2023/04/03 08:31:51;;;;;;;6.03;1.20;;;;;;;5.99;94.71;103166.94;5062248;28;20040;-58
2023/04/03 08:34:20;;;;;;;5.07;1.20;;;;;;;6.28;89.59;103160.56;5059668;28;20102;-58
2023/04/03 08:36:48;;;;;;;5.43;1.23;;;;;;;6.42;85.68;103174.34;5057422;28;20335;-58
2023/04/03 08:39:16;;;;;;;4.63;1.15;;;;;;;6.41;86.00;103156.97;5057821;28;20048;-58
2023/04/03 08:41:47;;;;;;;5.90;1.42;;;;;;;6.43;83.99;103163.03;5064205;28;20110;-58
2023/04/03 08:44:23;;;;;;;4.32;1.10;;;;;;;6.53;81.44;103171.63;5064769;28;20044;-58
2023/04/03 08:47:03;;;;;;;4.18;1.33;;;;;;;6.82;82.68;103159.97;5058313;28;20438;-57
2023/04/03 08:49:34;;;;;;;4.95;1.13;;;;;;;6.76;76.75;103171.34;5058795;28;20392;-58
2023/04/03 08:52:09;;;;;;;6.38;1.10;;;;;;;6.83;78.41;103173.03;5060323;28;20159;-59
2023/04/03 08:54:49;;;;;;;3.08;1.10;;;;;;;7.24;75.81;103178.59;5059936;28;20148;-59
2023/04/03 08:57:26;;;;;;;3.25;1.25;;;;;;;7.40;70.47;103163.53;5060998;28;20083;-59
2023/04/03 08:59:54;;;;;;;2.40;0.90;;;;;;;7.53;64.11;103162.47;5064021;28;20040;-59
2023/04/03 09:02:29;;;;;;;1.17;0.90;;;;;;;7.63;61.47;103160.56;5064387;28;20063;-59
2023/04/03 09:04:58;;;;;;;3.22;0.95;;;;;;;7.84;65.29;103148.88;5060031;28;20048;-59
2023/04/03 09:07:37;;;;;;;3.42;0.80;;;;;;;7.82;57.11;103162.91;5058425;28;20098;-58
2023/04/03 09:10:06;;;;;;;3.08;0.90;;;;;;;7.84;57.69;103150.63;5056523;28;20087;-59
2023/04/03 09:12:42;;;;;;;2.90;1.02;;;;;;;7.77;53.59;103161.22;5050667;28;20055;-59
2023/04/03 09:15:20;;;;;;;2.00;0.88;;;;;;;7.86;53.59;103160.19;5053519;28;20406;-58
2023/04/03 09:18:09;;;;;;;2.88;0.90;;;;;;;8.05;51.20;103162.50;5060676;28;20083;-59
2023/04/03 09:20:44;;;;;;;3.05;1.00;;;;;;;8.25;52.91;103152.53;5059793;28;20037;-59
2023/04/03 09:23:22;;;;;;;4.05;0.82;;;;;;;8.56;53.82;103156.34;5061259;28;20128;-59
2023/04/03 09:25:52;;;;;;;1.58;0.60;;;;;;;8.40;48.66;103158.38;5061982;28;20698;-59
2023/04/03 09:28:21;;;;;;;2.78;0.68;;;;;;;8.42;49.98;103144.31;5059895;28;20120;-59
2023/04/03 09:30:49;;;;;;;1.52;0.70;;;;;;;8.65;50.56;103157.94;5070638;28;20041;-60
2023/04/03 09:33:18;;;;;;;3.50;0.70;;;;;;;8.72;48.10;103157.75;5072146;28;20052;-60
2023/04/03 09:35:48;;;;;;;3.03;0.88;;;;;;;8.77;48.03;103155.91;5068905;28;20052;-60
2023/04/03 09:38:19;;;;;;;2.08;0.70;;;;;;;8.79;47.65;103153.25;5068985;28;20056;-60
2023/04/03 09:40:50;;;;;;;1.73;0.63;;;;;;;8.95;47.04;103161.66;5057012;28;20437;-60
2023/04/03 09:43:26;;;;;;;1.55;0.70;;;;;;;9.00;42.81;103144.06;5049955;28;20044;-60
2023/04/03 09:45:56;;;;;;;2.42;0.80;;;;;;;9.05;43.70;103147.47;5048405;28;20049;-60
2023/04/03 09:48:28;;;;;;;1.60;0.77;;;;;;;8.93;45.81;103138.09;5063419;28;20049;-59
2023/04/03 09:51:01;;;;;;;3.55;0.75;;;;;;;9.43;46.07;103134.34;5072403;28;20067;-60
2023/04/03 09:53:36;;;;;;;1.45;0.80;;;;;;;9.62;44.83;103142.63;5072528;28;20068;-60
2023/04/03 09:56:20;;;;;;;2.00;0.60;;;;;;;9.72;44.18;103135.38;5072339;28;20064;-60
2023/04/03 09:58:51;;;;;;;2.28;0.73;;;;;;;9.82;45.73;103129.00;5052317;28;20075;-60
2023/04/03 10:01:27;;;;;;;3.38;0.80;;;;;;;9.71;38.18;103124.03;5052012;28;20037;-60
2023/04/03 10:04:10;;;;;;;1.52;0.73;;;;;;;9.57;39.83;103127.00;5051898;28;20081;-59
2023/04/03 10:06:43;;;;;;;3.10;0.88;;;;;;;9.53;37.66;103138.47;5052176;28;20045;-60
2023/04/03 10:09:21;;;;;;;1.65;0.70;;;;;;;9.71;39.42;103121.41;5061245;28;20045;-60
2023/04/03 10:12:01;;;;;;;2.10;0.70;;;;;;;9.75;38.95;103130.06;5055299;28;20049;-59
2023/04/03 10:14:31;;;;;;;2.38;0.90;;;;;;;9.79;41.38;103131.72;5061263;28;20044;-60
2023/04/03 10:17:06;;;;;;;1.80;0.80;;;;;;;9.76;40.33;103127.41;5061842;28;20048;-59
2023/04/03 10:19:42;;;;;;;2.38;0.70;;;;;;;9.75;40.50;103119.56;5057591;28;20060;-60
2023/04/03 10:22:19;;;;;;;4.70;1.05;;;;;;;10.34;41.25;103118.00;5058076;28;20033;-60
2023/04/03 10:25:03;;;;;;;2.97;0.90;;;;;;;10.35;39.53;103125.00;5057410;28;20045;-60
2023/04/03 10:27:53;;;;;;;2.15;0.90;;;;;;;10.24;37.97;103113.00;5063831;28;20045;-60
2023/04/03 10:30:34;;;;;;;1.60;0.60;;;;;;;10.50;40.21;103100.91;5059349;28;20043;-62
2023/04/03 10:33:18;;;;;;;3.90;1.00;;;;;;;10.68;41.53;103099.50;5052206;28;20053;-62
2023/04/03 10:35:58;;;;;;;1.95;0.75;;;;;;;11.13;39.54;103087.59;5054236;28;20488;-61
2023/04/03 10:38:39;;;;;;;2.45;0.80;;;;;;;10.96;36.16;103091.63;5056195;28;20765;-62
2023/04/03 10:41:17;;;;;;;2.20;0.70;;;;;;;10.84;37.05;103097.28;5059228;28;20115;-62
2023/04/03 10:43:55;;;;;;;1.52;0.60;;;;;;;10.71;37.15;103088.03;5060402;28;20051;-62
2023/04/03 10:46:31;;;;;;;2.53;0.80;;;;;;;10.73;37.43;103086.19;5063800;28;20433;-61
2023/04/03 10:49:17;;;;;;;2.80;0.82;;;;;;;10.61;37.87;103092.72;5066745;28;20449;-61
2023/04/03 10:51:47;;;;;;;1.80;0.80;;;;;;;10.96;38.86;103081.09;5064842;28;20044;-62
2023/04/03 10:54:24;;;;;;;3.45;0.98;;;;;;;11.30;37.88;103087.94;5064740;28;20599;-62
2023/04/03 10:56:57;;;;;;;3.45;0.90;;;;;;;11.64;39.17;103068.34;5064545;28;20522;-62
2023/04/03 10:59:45;;;;;;;2.28;0.80;;;;;;;11.83;37.28;103068.59;5061866;28;20492;-63
2023/04/03 11:02:23;;;;;;;2.55;0.80;;;;;;;11.88;35.50;103067.56;5062246;28;20060;-62
2023/04/03 11:04:57;;;;;;;2.97;0.80;;;;;;;11.24;35.36;103056.50;5062729;28;20416;-61
2023/04/03 11:07:31;;;;;;;2.67;0.90;;;;;;;11.49;35.35;103053.06;5058500;28;20040;-61
2023/04/03 11:10:04;;;;;;;2.65;0.82;;;;;;;11.58;35.58;103050.09;5058139;28;20044;-61
2023/04/03 11:12:42;;;;;;;3.13;0.98;;;;;;;11.95;36.15;103055.91;5058855;28;20538;-62
2023/04/03 11:15:16;;;;;;;3.38;0.90;;;;;;;12.15;35.57;103047.28;5057920;28;20566;-62
2023/04/03 11:17:52;;;;;;;2.08;0.90;;;;;;;12.41;34.86;103054.22;5063885;28;20109;-62
2023/04/03 11:20:27;;;;;;;2.75;0.90;;;;;;;12.46;34.71;103057.53;5062305;28;20066;-63
2023/04/03 11:23:03;;;;;;;2.65;0.60;;;;;;;12.50;34.94;103052.97;5066931;28;20049;-62
2023/04/03 11:25:34;;;;;;;1.70;0.70;;;;;;;12.78;36.38;103051.94;5069267;28;20049;-62
2023/04/03 11:28:06;;;;;;;2.97;0.80;;;;;;;12.73;34.69;103048.59;5073974;28;20072;-62
2023/04/03 11:30:43;;;;;;;4.63;1.02;;;;;;;12.70;35.33;103054.00;5071390;28;20399;-62
2023/04/03 11:33:29;;;;;;;2.75;0.80;;;;;;;12.57;35.01;103045.69;5059420;28;20393;-62
2023/04/03 11:36:03;;;;;;;2.25;0.80;;;;;;;12.58;34.95;103043.00;5062093;28;20071;-62
2023/04/03 11:38:48;;;;;;;2.38;0.90;;;;;;;12.60;34.00;103043.81;5061507;28;20065;-62
2023/04/03 11:41:16;;;;;;;4.57;1.00;;;;;;;12.32;33.68;103036.97;5063547;28;20048;-63
2023/04/03 11:43:59;;;;;;;2.40;0.73;;;;;;;12.28;34.60;103032.69;5058912;28;20143;-62